createdAt,value
2017-04-22T00:02:03.709Z,6.0
2017-04-22T00:07:03.397Z,5.9
2017-04-22T00:12:03.933Z,5.7
2017-04-22T00:17:03.999Z,5.8
2017-04-22T00:22:03.558Z,5.7
2017-04-22T00:27:03.423Z,5.6
2017-04-22T00:32:04.135Z,5.5
2017-04-22T00:37:04.280Z,5.3
2017-04-22T00:42:03.566Z,5.1
2017-04-22T00:47:03.546Z,5.1
2017-04-22T00:52:03.526Z,4.8
2017-04-22T00:57:03.303Z,4.7
2017-04-22T01:02:03.866Z,4.7
2017-04-22T01:07:03.398Z,4.5
2017-04-22T01:12:04.151Z,4.5
2017-04-22T01:17:04.158Z,4.5
2017-04-22T01:22:03.075Z,4.4
2017-04-22T01:27:03.572Z,4.4
2017-04-22T01:32:03.268Z,4.4
2017-04-22T01:37:03.373Z,4.4
2017-04-22T01:42:03.000Z,4.4
2017-04-22T01:47:04.743Z,4.5
2017-04-22T01:52:02.965Z,4.4
2017-04-22T01:57:03.924Z,4.4
2017-04-22T02:02:03.112Z,4.3
2017-04-22T02:07:03.178Z,4.2
2017-04-22T02:12:03.412Z,4.2
2017-04-22T02:17:03.971Z,4.1
2017-04-22T02:22:03.787Z,4.1
2017-04-22T02:27:03.730Z,4.1
2017-04-22T02:32:04.031Z,4.2
2017-04-22T02:37:03.906Z,4.2
2017-04-22T02:42:03.732Z,4.2
2017-04-22T02:47:03.265Z,4.3
2017-04-22T02:52:03.343Z,4.4
2017-04-22T02:57:03.626Z,4.5
2017-04-22T03:02:03.833Z,4.8
2017-04-22T03:07:03.927Z,4.7
2017-04-22T03:12:03.778Z,4.9
2017-04-22T03:17:03.115Z,5.0
2017-04-22T03:22:03.371Z,5.1
2017-04-22T03:27:03.842Z,5.1
2017-04-22T03:32:03.348Z,5.1
2017-04-22T03:37:03.335Z,5.2
2017-04-22T03:42:03.288Z,5.3
2017-04-22T03:47:04.021Z,5.2
2017-04-22T03:52:03.184Z,5.4
2017-04-22T03:57:03.282Z,5.3
2017-04-22T04:02:03.371Z,5.4
2017-04-22T04:07:03.748Z,5.4
2017-04-22T04:12:04.166Z,5.5
2017-04-22T04:17:03.970Z,5.6
2017-04-22T04:22:03.184Z,5.5
2017-04-22T04:27:03.306Z,5.6
2017-04-22T04:32:04.141Z,5.6
2017-04-22T04:37:03.533Z,5.7
2017-04-22T04:42:02.974Z,5.7
2017-04-22T04:47:03.922Z,5.7
2017-04-22T04:52:03.207Z,5.7
2017-04-22T04:57:03.396Z,5.9
2017-04-22T05:02:04.383Z,5.8
2017-04-22T05:07:03.829Z,6.1
2017-04-22T05:12:03.238Z,6.1
2017-04-22T05:17:04.253Z,6.4
2017-04-22T05:22:03.295Z,6.4
2017-04-22T05:27:03.263Z,6.5
2017-04-22T05:32:04.004Z,6.6
2017-04-22T05:37:03.300Z,6.7
2017-04-22T05:42:03.642Z,6.8
2017-04-22T05:47:04.024Z,6.9
2017-04-22T05:52:03.508Z,7.0
2017-04-22T05:57:03.385Z,7.0
2017-04-22T06:02:10.703Z,7.1
2017-04-22T06:07:03.669Z,7.2
2017-04-22T06:12:03.014Z,7.3
2017-04-22T06:17:12.427Z,7.3
2017-04-22T06:22:03.116Z,7.6
2017-04-22T06:27:03.467Z,7.6
2017-04-22T06:37:03.242Z,7.9
2017-04-22T06:42:03.554Z,7.8
2017-04-22T06:47:17.545Z,7.9
2017-04-22T06:52:03.213Z,7.9
2017-04-22T06:57:03.509Z,8.1
2017-04-22T07:02:13.166Z,8.0
2017-04-22T07:07:03.328Z,8.4
2017-04-22T07:12:02.826Z,8.4
2017-04-22T07:17:17.755Z,8.6
2017-04-22T07:22:02.724Z,9.0
2017-04-22T07:27:03.171Z,8.9
2017-04-22T07:32:13.686Z,9.3
2017-04-22T07:37:02.765Z,9.3
2017-04-22T07:42:03.149Z,9.6
2017-04-22T07:47:13.841Z,9.6
2017-04-22T07:52:03.238Z,9.8
2017-04-22T07:57:03.532Z,10.0
2017-04-22T08:02:17.291Z,10.1
2017-04-22T08:07:03.218Z,10.2
2017-04-22T08:12:03.591Z,10.4
2017-04-22T08:22:02.924Z,10.5
2017-04-22T08:27:03.352Z,10.8
2017-04-22T08:32:17.151Z,10.9
2017-04-22T08:37:03.367Z,10.8
2017-04-22T08:42:02.687Z,11.0
2017-04-22T08:52:03.322Z,11.4
2017-04-22T08:57:02.642Z,11.4
2017-04-22T09:02:13.291Z,11.5
2017-04-22T09:07:03.122Z,11.5
2017-04-22T09:12:02.793Z,11.7
2017-04-22T09:22:03.607Z,12.2
2017-04-22T09:27:03.091Z,12.5
2017-04-22T09:32:16.393Z,12.8
2017-04-22T09:37:02.788Z,13.0
2017-04-22T09:42:03.222Z,12.9
2017-04-22T09:47:13.950Z,13.2
2017-04-22T09:52:02.941Z,13.1
2017-04-22T09:57:03.382Z,13.2
2017-04-22T10:02:22.029Z,13.0
2017-04-22T10:07:03.552Z,12.8
2017-04-22T10:12:03.113Z,12.7
2017-04-22T10:17:14.002Z,12.9
2017-04-22T10:22:03.419Z,13.2
2017-04-22T10:27:02.834Z,13.5
2017-04-22T10:32:13.865Z,13.6
2017-04-22T10:37:03.338Z,14.2
2017-04-22T10:42:02.728Z,14.7
2017-04-22T10:47:16.939Z,15.2
2017-04-22T10:52:03.465Z,15.1
2017-04-22T10:57:03.397Z,15.6
2017-04-22T11:02:13.025Z,16.0
2017-04-22T11:07:03.196Z,16.4
2017-04-22T11:12:02.869Z,16.4
2017-04-22T11:17:17.379Z,16.6
2017-04-22T11:22:03.488Z,16.8
2017-04-22T11:27:02.898Z,16.8
2017-04-22T11:32:17.848Z,16.5
2017-04-22T11:37:03.382Z,16.4
2017-04-22T11:42:02.711Z,16.4
2017-04-22T11:47:17.749Z,17.0
2017-04-22T11:52:03.370Z,16.9
2017-04-22T11:57:02.729Z,17.0
2017-04-22T12:02:13.303Z,17.0
2017-04-22T12:07:02.842Z,16.8
2017-04-22T12:12:03.399Z,16.7
2017-04-22T12:17:17.478Z,16.8
2017-04-22T12:22:03.048Z,16.9
2017-04-22T12:27:03.443Z,16.9
2017-04-22T12:32:13.358Z,16.6
2017-04-22T12:37:03.525Z,16.5
2017-04-22T12:42:03.477Z,15.9
2017-04-22T12:47:22.958Z,15.3
2017-04-22T12:52:02.718Z,14.7
2017-04-22T12:57:03.140Z,14.3
2017-04-22T13:02:04.262Z,13.8
2017-04-22T13:07:03.545Z,13.6
2017-04-22T13:12:03.205Z,13.6
2017-04-22T13:17:13.925Z,13.1
2017-04-22T13:22:03.200Z,13.1
2017-04-22T13:27:03.513Z,13.0
2017-04-22T13:32:06.780Z,12.8
2017-04-22T13:37:03.621Z,12.8
2017-04-22T13:42:02.985Z,12.8
2017-04-22T13:47:09.096Z,12.6
2017-04-22T13:52:02.807Z,12.6
2017-04-22T13:57:02.876Z,12.5
2017-04-22T14:02:05.768Z,12.6
2017-04-22T14:07:03.038Z,12.2
2017-04-22T14:12:03.497Z,12.2
2017-04-22T14:17:13.262Z,12.1
2017-04-22T14:22:03.565Z,12.0
2017-04-22T14:27:03.083Z,11.8
2017-04-22T14:32:15.130Z,11.8
2017-04-22T14:37:02.984Z,11.7
2017-04-22T14:42:02.789Z,11.6
2017-04-22T14:47:11.526Z,11.5
2017-04-22T14:52:03.006Z,11.4
2017-04-22T14:57:03.214Z,11.4
2017-04-22T15:02:08.533Z,11.3
2017-04-22T15:07:03.743Z,11.3
2017-04-22T15:12:02.883Z,11.3
2017-04-22T15:17:13.809Z,11.2
2017-04-22T15:22:03.012Z,11.1
2017-04-22T15:27:03.439Z,10.8
2017-04-22T15:32:12.944Z,10.6
2017-04-22T15:37:03.457Z,10.4
2017-04-22T15:42:02.803Z,10.2
2017-04-22T15:47:17.859Z,10.2
2017-04-22T15:52:03.433Z,10.5
2017-04-22T15:57:02.797Z,10.5
2017-04-22T16:02:13.562Z,10.4
2017-04-22T16:07:02.893Z,9.9
2017-04-22T16:12:03.269Z,9.9
2017-04-22T16:17:17.638Z,9.6
2017-04-22T16:22:03.335Z,9.3
2017-04-22T16:27:02.719Z,9.2
2017-04-22T16:32:17.564Z,9.1
2017-04-22T16:37:03.127Z,9.2
2017-04-22T16:42:03.419Z,9.3
2017-04-22T16:47:17.342Z,9.3
2017-04-22T16:52:03.359Z,9.2
2017-04-22T16:57:02.757Z,9.1
2017-04-22T17:02:17.500Z,9.3
2017-04-22T17:07:02.745Z,9.2
2017-04-22T17:12:03.398Z,9.1
2017-04-22T17:17:22.696Z,8.8
2017-04-22T17:22:03.368Z,8.8
2017-04-22T17:27:02.783Z,8.8
2017-04-22T17:32:13.366Z,9.0
2017-04-22T17:37:02.744Z,9.1
2017-04-22T17:42:03.186Z,9.1
2017-04-22T17:47:13.032Z,9.1
2017-04-22T17:52:03.206Z,9.1
2017-04-22T17:57:03.325Z,9.2
2017-04-22T18:02:13.606Z,9.3
2017-04-22T18:07:03.253Z,9.3
2017-04-22T18:12:03.032Z,9.3
2017-04-22T18:17:13.974Z,9.2
2017-04-22T18:22:03.072Z,9.1
2017-04-22T18:27:03.426Z,9.0
2017-04-22T18:32:22.563Z,8.9
2017-04-22T18:37:03.161Z,8.9
2017-04-22T18:42:03.469Z,8.9
2017-04-22T18:52:03.101Z,9.0
2017-04-22T18:57:03.434Z,9.0
2017-04-22T19:02:03.795Z,8.8
2017-04-22T19:07:03.248Z,8.8
2017-04-22T19:12:02.735Z,8.7
2017-04-22T19:17:03.122Z,8.6
2017-04-22T19:22:03.322Z,8.7
2017-04-22T19:27:03.624Z,8.6
2017-04-22T19:32:02.981Z,8.5
2017-04-22T19:37:03.251Z,8.4
2017-04-22T19:42:03.525Z,8.4
2017-04-22T19:52:03.218Z,8.0
2017-04-22T19:57:03.446Z,8.0
2017-04-22T20:02:02.834Z,7.9
2017-04-22T20:07:03.119Z,7.9
2017-04-22T20:12:03.534Z,7.8
2017-04-22T20:17:02.997Z,8.0
2017-04-22T20:22:03.127Z,8.2
2017-04-22T20:27:03.454Z,8.1
2017-04-22T20:32:02.870Z,8.1
2017-04-22T20:37:03.031Z,8.1
2017-04-22T20:42:03.273Z,8.1
2017-04-22T20:47:02.922Z,8.0
2017-04-22T20:52:02.702Z,7.9
2017-04-22T20:57:03.045Z,7.7
2017-04-22T21:02:03.504Z,7.5
2017-04-22T21:07:02.841Z,7.6
2017-04-22T21:12:03.212Z,7.5
2017-04-22T21:17:03.536Z,7.6
2017-04-22T21:22:02.899Z,7.7
2017-04-22T21:27:03.084Z,7.8
2017-04-22T21:32:03.302Z,7.8
2017-04-22T21:37:03.623Z,7.7
2017-04-22T21:42:02.874Z,7.4
2017-04-22T21:47:03.127Z,7.3
2017-04-22T21:52:03.407Z,7.3
2017-04-22T21:57:02.756Z,7.2
2017-04-22T22:02:03.147Z,7.1
2017-04-22T22:07:03.077Z,7.0
2017-04-22T22:12:03.234Z,6.8
2017-04-22T22:22:03.730Z,6.4
2017-04-22T22:27:03.215Z,6.4
2017-04-22T22:32:02.819Z,6.2
2017-04-22T22:37:03.387Z,6.1
2017-04-22T22:42:03.071Z,6.1
2017-04-22T22:47:02.659Z,6.0
2017-04-22T22:52:03.080Z,6.1
2017-04-22T22:57:02.719Z,6.2
2017-04-22T23:02:03.288Z,6.1
2017-04-22T23:07:02.741Z,6.1
2017-04-22T23:12:02.731Z,6.1
2017-04-22T23:17:04.854Z,6.2
2017-04-22T23:22:03.087Z,6.1
2017-04-22T23:27:02.932Z,6.0
2017-04-22T23:32:03.730Z,5.9
2017-04-22T23:37:03.238Z,5.7
2017-04-22T23:42:03.290Z,5.6
2017-04-22T23:47:02.898Z,5.5
2017-04-22T23:52:03.290Z,5.3
2017-04-22T23:57:03.220Z,5.3
